sensor_id;sensor_type;location;lat;lon;timestamp;P1;durP1;ratioP1;P2;durP2;ratioP2
27740;SDS011;15134;48.768;9.184;2022-10-19T00:02:20;18.10;;;10.87;;
27740;SDS011;15134;48.768;9.184;2022-10-19T00:04:46;17.63;;;10.13;;
27740;SDS011;15134;48.768;9.184;2022-10-19T00:07:12;17.53;;;10.33;;
27740;SDS011;15134;48.768;9.184;2022-10-19T00:09:37;15.07;;;8.97;;
27740;SDS011;15134;48.768;9.184;2022-10-19T00:12:03;12.32;;;9.00;;
27740;SDS011;15134;48.768;9.184;2022-10-19T00:14:29;12.70;;;8.47;;
27740;SDS011;15134;48.768;9.184;2022-10-19T00:16:55;12.77;;;8.50;;
27740;SDS011;15134;48.768;9.184;2022-10-19T00:19:23;15.98;;;9.30;;
27740;SDS011;15134;48.768;9.184;2022-10-19T00:21:50;16.30;;;8.98;;
27740;SDS011;15134;48.768;9.184;2022-10-19T00:24:16;15.57;;;8.68;;
27740;SDS011;15134;48.768;9.184;2022-10-19T00:26:42;14.68;;;9.52;;
27740;SDS011;15134;48.768;9.184;2022-10-19T00:29:09;15.47;;;9.67;;
27740;SDS011;15134;48.768;9.184;2022-10-19T00:31:35;15.13;;;9.52;;
27740;SDS011;15134;48.768;9.184;2022-10-19T00:34:01;13.27;;;9.07;;
27740;SDS011;15134;48.768;9.184;2022-10-19T00:36:28;17.07;;;9.87;;
27740;SDS011;15134;48.768;9.184;2022-10-19T00:38:56;15.48;;;9.50;;
27740;SDS011;15134;48.768;9.184;2022-10-19T00:41:23;13.35;;;8.77;;
27740;SDS011;15134;48.768;9.184;2022-10-19T00:43:53;17.95;;;10.40;;
27740;SDS011;15134;48.768;9.184;2022-10-19T00:46:23;14.38;;;10.02;;
27740;SDS011;15134;48.768;9.184;2022-10-19T00:48:51;14.18;;;9.88;;
27740;SDS011;15134;48.768;9.184;2022-10-19T00:51:19;17.48;;;10.05;;
27740;SDS011;15134;48.768;9.184;2022-10-19T00:53:46;14.45;;;9.07;;
27740;SDS011;15134;48.768;9.184;2022-10-19T00:56:12;16.97;;;9.17;;
27740;SDS011;15134;48.768;9.184;2022-10-19T00:58:40;13.07;;;8.65;;
27740;SDS011;15134;48.768;9.184;2022-10-19T01:01:06;18.88;;;10.23;;
27740;SDS011;15134;48.768;9.184;2022-10-19T01:03:34;13.63;;;8.70;;
27740;SDS011;15134;48.768;9.184;2022-10-19T01:06:00;17.03;;;8.73;;
27740;SDS011;15134;48.768;9.184;2022-10-19T01:08:27;17.27;;;10.55;;
27740;SDS011;15134;48.768;9.184;2022-10-19T01:11:00;17.73;;;11.40;;
27740;SDS011;15134;48.768;9.184;2022-10-19T01:16:37;19.27;;;10.88;;
27740;SDS011;15134;48.768;9.184;2022-10-19T01:19:27;16.50;;;10.75;;
27740;SDS011;15134;48.768;9.184;2022-10-19T01:22:18;28.02;;;15.23;;
27740;SDS011;15134;48.768;9.184;2022-10-19T01:30:57;20.73;;;13.07;;
27740;SDS011;15134;48.768;9.184;2022-10-19T01:39:14;16.73;;;11.73;;
27740;SDS011;15134;48.768;9.184;2022-10-19T01:42:06;15.82;;;10.35;;
27740;SDS011;15134;48.768;9.184;2022-10-19T01:45:03;17.25;;;11.05;;
27740;SDS011;15134;48.768;9.184;2022-10-19T01:47:41;22.23;;;14.73;;
27740;SDS011;15134;48.768;9.184;2022-10-19T01:50:20;20.98;;;13.57;;
27740;SDS011;15134;48.768;9.184;2022-10-19T01:52:55;26.63;;;13.95;;
27740;SDS011;15134;48.768;9.184;2022-10-19T01:55:23;22.20;;;13.52;;
27740;SDS011;15134;48.768;9.184;2022-10-19T01:58:09;25.50;;;14.23;;
27740;SDS011;15134;48.768;9.184;2022-10-19T02:00:41;29.13;;;13.93;;
27740;SDS011;15134;48.768;9.184;2022-10-19T02:03:09;28.70;;;15.77;;
27740;SDS011;15134;48.768;9.184;2022-10-19T02:05:36;35.08;;;16.05;;
27740;SDS011;15134;48.768;9.184;2022-10-19T02:08:09;28.38;;;15.05;;
27740;SDS011;15134;48.768;9.184;2022-10-19T02:10:37;34.83;;;18.50;;
27740;SDS011;15134;48.768;9.184;2022-10-19T02:13:05;30.95;;;17.20;;
27740;SDS011;15134;48.768;9.184;2022-10-19T02:15:33;37.38;;;17.17;;
27740;SDS011;15134;48.768;9.184;2022-10-19T02:18:01;36.35;;;17.85;;
27740;SDS011;15134;48.768;9.184;2022-10-19T02:20:28;43.85;;;21.20;;
27740;SDS011;15134;48.768;9.184;2022-10-19T02:22:55;36.47;;;19.40;;
27740;SDS011;15134;48.768;9.184;2022-10-19T02:25:21;43.10;;;21.07;;
27740;SDS011;15134;48.768;9.184;2022-10-19T02:27:48;37.22;;;20.67;;
27740;SDS011;15134;48.768;9.184;2022-10-19T02:30:15;45.13;;;20.57;;
27740;SDS011;15134;48.768;9.184;2022-10-19T02:32:44;41.42;;;20.73;;
27740;SDS011;15134;48.768;9.184;2022-10-19T02:35:10;45.83;;;25.50;;
27740;SDS011;15134;48.768;9.184;2022-10-19T02:37:38;49.20;;;25.38;;
27740;SDS011;15134;48.768;9.184;2022-10-19T02:40:05;59.70;;;30.77;;
27740;SDS011;15134;48.768;9.184;2022-10-19T02:42:38;59.97;;;30.40;;
27740;SDS011;15134;48.768;9.184;2022-10-19T02:45:18;64.95;;;35.05;;
27740;SDS011;15134;48.768;9.184;2022-10-19T02:47:53;80.43;;;39.50;;
27740;SDS011;15134;48.768;9.184;2022-10-19T02:50:26;55.42;;;28.25;;
27740;SDS011;15134;48.768;9.184;2022-10-19T02:52:52;58.20;;;29.10;;
27740;SDS011;15134;48.768;9.184;2022-10-19T02:55:17;37.13;;;19.70;;
27740;SDS011;15134;48.768;9.184;2022-10-19T02:57:43;42.57;;;16.97;;
27740;SDS011;15134;48.768;9.184;2022-10-19T03:00:09;32.38;;;15.45;;
27740;SDS011;15134;48.768;9.184;2022-10-19T03:02:35;34.63;;;16.15;;
27740;SDS011;15134;48.768;9.184;2022-10-19T03:05:02;33.90;;;16.60;;
27740;SDS011;15134;48.768;9.184;2022-10-19T03:07:28;41.63;;;18.80;;
27740;SDS011;15134;48.768;9.184;2022-10-19T03:09:54;41.50;;;17.13;;
27740;SDS011;15134;48.768;9.184;2022-10-19T03:12:20;42.27;;;17.00;;
27740;SDS011;15134;48.768;9.184;2022-10-19T03:14:45;41.73;;;17.07;;
27740;SDS011;15134;48.768;9.184;2022-10-19T03:17:11;40.87;;;18.00;;
27740;SDS011;15134;48.768;9.184;2022-10-19T03:19:37;44.63;;;18.17;;
27740;SDS011;15134;48.768;9.184;2022-10-19T03:22:03;39.58;;;17.38;;
27740;SDS011;15134;48.768;9.184;2022-10-19T03:24:29;38.37;;;17.43;;
27740;SDS011;15134;48.768;9.184;2022-10-19T03:26:55;35.83;;;17.45;;
27740;SDS011;15134;48.768;9.184;2022-10-19T03:29:21;40.00;;;18.10;;
27740;SDS011;15134;48.768;9.184;2022-10-19T03:31:47;36.93;;;16.87;;
27740;SDS011;15134;48.768;9.184;2022-10-19T03:34:12;36.20;;;17.13;;
27740;SDS011;15134;48.768;9.184;2022-10-19T03:36:38;37.17;;;16.10;;
27740;SDS011;15134;48.768;9.184;2022-10-19T03:39:05;41.60;;;16.33;;
27740;SDS011;15134;48.768;9.184;2022-10-19T03:41:35;37.97;;;19.25;;
27740;SDS011;15134;48.768;9.184;2022-10-19T03:44:02;51.97;;;28.00;;
27740;SDS011;15134;48.768;9.184;2022-10-19T03:46:28;62.90;;;36.75;;
27740;SDS011;15134;48.768;9.184;2022-10-19T03:48:54;45.70;;;25.05;;
27740;SDS011;15134;48.768;9.184;2022-10-19T03:51:24;49.73;;;27.20;;
27740;SDS011;15134;48.768;9.184;2022-10-19T03:53:52;57.33;;;30.98;;
27740;SDS011;15134;48.768;9.184;2022-10-19T03:56:19;50.53;;;27.85;;
27740;SDS011;15134;48.768;9.184;2022-10-19T03:58:47;40.70;;;22.52;;
27740;SDS011;15134;48.768;9.184;2022-10-19T04:01:15;44.60;;;20.33;;
27740;SDS011;15134;48.768;9.184;2022-10-19T04:03:43;43.72;;;21.17;;
27740;SDS011;15134;48.768;9.184;2022-10-19T04:06:13;39.80;;;20.03;;
27740;SDS011;15134;48.768;9.184;2022-10-19T04:08:42;40.03;;;23.20;;
27740;SDS011;15134;48.768;9.184;2022-10-19T04:13:38;38.20;;;18.77;;
27740;SDS011;15134;48.768;9.184;2022-10-19T04:16:04;31.40;;;16.42;;
27740;SDS011;15134;48.768;9.184;2022-10-19T04:18:31;34.42;;;17.45;;
27740;SDS011;15134;48.768;9.184;2022-10-19T04:21:00;40.93;;;18.03;;
27740;SDS011;15134;48.768;9.184;2022-10-19T04:23:29;31.70;;;15.95;;
27740;SDS011;15134;48.768;9.184;2022-10-19T04:28:26;32.63;;;15.80;;
27740;SDS011;15134;48.768;9.184;2022-10-19T04:30:52;32.77;;;17.30;;
27740;SDS011;15134;48.768;9.184;2022-10-19T04:33:17;45.83;;;26.03;;
27740;SDS011;15134;48.768;9.184;2022-10-19T04:35:43;34.10;;;19.37;;
27740;SDS011;15134;48.768;9.184;2022-10-19T04:38:09;40.07;;;23.43;;
27740;SDS011;15134;48.768;9.184;2022-10-19T04:40:35;41.70;;;23.87;;
27740;SDS011;15134;48.768;9.184;2022-10-19T04:43:01;46.78;;;27.45;;
27740;SDS011;15134;48.768;9.184;2022-10-19T04:45:27;42.30;;;23.45;;
27740;SDS011;15134;48.768;9.184;2022-10-19T04:47:53;46.63;;;25.10;;
27740;SDS011;15134;48.768;9.184;2022-10-19T04:50:20;51.03;;;28.85;;
27740;SDS011;15134;48.768;9.184;2022-10-19T04:52:53;50.13;;;25.48;;
27740;SDS011;15134;48.768;9.184;2022-10-19T04:55:19;45.30;;;26.30;;
27740;SDS011;15134;48.768;9.184;2022-10-19T04:57:45;60.67;;;40.27;;
27740;SDS011;15134;48.768;9.184;2022-10-19T05:00:11;41.60;;;22.83;;
27740;SDS011;15134;48.768;9.184;2022-10-19T05:02:41;46.28;;;26.67;;
27740;SDS011;15134;48.768;9.184;2022-10-19T05:05:07;40.90;;;24.40;;
27740;SDS011;15134;48.768;9.184;2022-10-19T05:07:33;36.63;;;22.47;;
27740;SDS011;15134;48.768;9.184;2022-10-19T05:09:58;36.97;;;21.30;;
27740;SDS011;15134;48.768;9.184;2022-10-19T05:12:24;77.97;;;48.50;;
27740;SDS011;15134;48.768;9.184;2022-10-19T05:14:50;49.43;;;29.90;;
27740;SDS011;15134;48.768;9.184;2022-10-19T05:17:15;46.93;;;27.00;;
27740;SDS011;15134;48.768;9.184;2022-10-19T05:19:41;55.03;;;33.00;;
27740;SDS011;15134;48.768;9.184;2022-10-19T05:22:07;37.07;;;23.63;;
27740;SDS011;15134;48.768;9.184;2022-10-19T05:24:33;38.00;;;23.45;;
27740;SDS011;15134;48.768;9.184;2022-10-19T05:26:59;34.53;;;20.80;;
27740;SDS011;15134;48.768;9.184;2022-10-19T05:29:24;29.07;;;20.53;;
27740;SDS011;15134;48.768;9.184;2022-10-19T05:31:50;32.30;;;22.13;;
27740;SDS011;15134;48.768;9.184;2022-10-19T05:34:16;34.23;;;22.53;;
27740;SDS011;15134;48.768;9.184;2022-10-19T05:36:41;33.47;;;20.97;;
27740;SDS011;15134;48.768;9.184;2022-10-19T05:39:11;32.03;;;21.20;;
27740;SDS011;15134;48.768;9.184;2022-10-19T05:41:41;31.88;;;21.08;;
27740;SDS011;15134;48.768;9.184;2022-10-19T05:44:10;32.65;;;21.25;;
27740;SDS011;15134;48.768;9.184;2022-10-19T05:46:39;37.92;;;24.50;;
27740;SDS011;15134;48.768;9.184;2022-10-19T05:49:05;32.30;;;21.97;;
27740;SDS011;15134;48.768;9.184;2022-10-19T05:51:30;33.93;;;23.27;;
27740;SDS011;15134;48.768;9.184;2022-10-19T05:53:56;31.97;;;21.77;;
27740;SDS011;15134;48.768;9.184;2022-10-19T05:56:23;29.83;;;19.60;;
27740;SDS011;15134;48.768;9.184;2022-10-19T05:58:50;29.58;;;19.02;;
27740;SDS011;15134;48.768;9.184;2022-10-19T06:01:17;33.97;;;22.90;;
27740;SDS011;15134;48.768;9.184;2022-10-19T06:03:44;30.33;;;20.67;;
27740;SDS011;15134;48.768;9.184;2022-10-19T06:06:11;28.38;;;19.40;;
27740;SDS011;15134;48.768;9.184;2022-10-19T06:08:37;27.07;;;19.00;;
27740;SDS011;15134;48.768;9.184;2022-10-19T06:13:37;30.73;;;19.65;;
27740;SDS011;15134;48.768;9.184;2022-10-19T06:16:03;28.63;;;18.50;;
27740;SDS011;15134;48.768;9.184;2022-10-19T06:18:30;26.83;;;18.67;;
27740;SDS011;15134;48.768;9.184;2022-10-19T06:21:00;26.23;;;18.27;;
27740;SDS011;15134;48.768;9.184;2022-10-19T06:23:31;31.02;;;17.95;;
27740;SDS011;15134;48.768;9.184;2022-10-19T06:25:57;25.02;;;17.65;;
27740;SDS011;15134;48.768;9.184;2022-10-19T06:28:23;26.10;;;18.25;;
27740;SDS011;15134;48.768;9.184;2022-10-19T06:30:49;25.70;;;18.17;;
27740;SDS011;15134;48.768;9.184;2022-10-19T06:33:15;26.57;;;18.57;;
27740;SDS011;15134;48.768;9.184;2022-10-19T06:35:40;24.43;;;16.13;;
27740;SDS011;15134;48.768;9.184;2022-10-19T06:38:07;24.35;;;16.52;;
27740;SDS011;15134;48.768;9.184;2022-10-19T06:40:34;25.38;;;15.90;;
27740;SDS011;15134;48.768;9.184;2022-10-19T06:43:00;21.42;;;15.65;;
27740;SDS011;15134;48.768;9.184;2022-10-19T06:45:26;24.33;;;15.70;;
27740;SDS011;15134;48.768;9.184;2022-10-19T06:47:51;23.53;;;15.53;;
27740;SDS011;15134;48.768;9.184;2022-10-19T06:50:17;25.25;;;15.55;;
27740;SDS011;15134;48.768;9.184;2022-10-19T06:52:44;22.27;;;15.48;;
27740;SDS011;15134;48.768;9.184;2022-10-19T06:55:10;23.15;;;15.32;;
27740;SDS011;15134;48.768;9.184;2022-10-19T06:57:36;25.63;;;14.30;;
27740;SDS011;15134;48.768;9.184;2022-10-19T07:00:03;25.17;;;14.73;;
27740;SDS011;15134;48.768;9.184;2022-10-19T07:02:30;20.90;;;14.57;;
27740;SDS011;15134;48.768;9.184;2022-10-19T07:04:56;27.27;;;15.43;;
27740;SDS011;15134;48.768;9.184;2022-10-19T07:07:22;20.00;;;14.40;;
27740;SDS011;15134;48.768;9.184;2022-10-19T07:09:47;20.27;;;15.40;;
27740;SDS011;15134;48.768;9.184;2022-10-19T07:12:13;28.27;;;17.07;;
27740;SDS011;15134;48.768;9.184;2022-10-19T07:14:39;21.57;;;15.73;;
27740;SDS011;15134;48.768;9.184;2022-10-19T07:17:05;25.40;;;15.80;;
27740;SDS011;15134;48.768;9.184;2022-10-19T07:21:57;24.67;;;15.23;;
27740;SDS011;15134;48.768;9.184;2022-10-19T07:24:23;24.10;;;14.50;;
27740;SDS011;15134;48.768;9.184;2022-10-19T07:26:49;18.00;;;12.27;;
27740;SDS011;15134;48.768;9.184;2022-10-19T07:29:14;18.60;;;13.23;;
27740;SDS011;15134;48.768;9.184;2022-10-19T07:31:40;16.43;;;12.63;;
27740;SDS011;15134;48.768;9.184;2022-10-19T07:34:09;19.55;;;13.23;;
27740;SDS011;15134;48.768;9.184;2022-10-19T07:36:36;17.48;;;12.32;;
27740;SDS011;15134;48.768;9.184;2022-10-19T07:39:04;17.02;;;11.23;;
27740;SDS011;15134;48.768;9.184;2022-10-19T07:41:31;18.27;;;13.25;;
27740;SDS011;15134;48.768;9.184;2022-10-19T07:43:58;18.27;;;12.43;;
27740;SDS011;15134;48.768;9.184;2022-10-19T07:46:25;15.73;;;10.77;;
27740;SDS011;15134;48.768;9.184;2022-10-19T07:49:02;15.32;;;11.93;;
27740;SDS011;15134;48.768;9.184;2022-10-19T07:51:30;15.15;;;11.57;;
27740;SDS011;15134;48.768;9.184;2022-10-19T07:53:59;17.30;;;12.33;;
27740;SDS011;15134;48.768;9.184;2022-10-19T07:56:25;18.20;;;12.25;;
27740;SDS011;15134;48.768;9.184;2022-10-19T07:58:53;15.65;;;11.18;;
27740;SDS011;15134;48.768;9.184;2022-10-19T08:01:24;17.63;;;11.27;;
27740;SDS011;15134;48.768;9.184;2022-10-19T08:03:52;16.50;;;11.52;;
27740;SDS011;15134;48.768;9.184;2022-10-19T08:06:19;17.02;;;11.05;;
27740;SDS011;15134;48.768;9.184;2022-10-19T08:08:45;16.93;;;10.30;;
27740;SDS011;15134;48.768;9.184;2022-10-19T08:11:13;19.83;;;12.25;;
27740;SDS011;15134;48.768;9.184;2022-10-19T08:13:41;17.45;;;11.20;;
27740;SDS011;15134;48.768;9.184;2022-10-19T08:18:58;15.25;;;10.68;;
27740;SDS011;15134;48.768;9.184;2022-10-19T08:21:25;21.23;;;12.82;;
27740;SDS011;15134;48.768;9.184;2022-10-19T08:23:51;16.75;;;11.32;;
27740;SDS011;15134;48.768;9.184;2022-10-19T08:26:17;20.43;;;10.93;;
27740;SDS011;15134;48.768;9.184;2022-10-19T08:28:43;18.00;;;12.52;;
27740;SDS011;15134;48.768;9.184;2022-10-19T08:31:10;17.63;;;12.57;;
27740;SDS011;15134;48.768;9.184;2022-10-19T08:33:37;20.42;;;12.65;;
27740;SDS011;15134;48.768;9.184;2022-10-19T08:36:04;19.15;;;10.63;;
27740;SDS011;15134;48.768;9.184;2022-10-19T08:38:34;15.52;;;10.52;;
27740;SDS011;15134;48.768;9.184;2022-10-19T08:43:33;15.48;;;10.68;;
27740;SDS011;15134;48.768;9.184;2022-10-19T08:46:13;14.32;;;10.32;;
27740;SDS011;15134;48.768;9.184;2022-10-19T08:48:50;25.75;;;17.35;;
27740;SDS011;15134;48.768;9.184;2022-10-19T08:51:16;14.93;;;9.45;;
27740;SDS011;15134;48.768;9.184;2022-10-19T08:56:19;16.95;;;9.35;;
27740;SDS011;15134;48.768;9.184;2022-10-19T09:01:36;16.05;;;9.93;;
27740;SDS011;15134;48.768;9.184;2022-10-19T09:04:22;13.40;;;9.18;;
27740;SDS011;15134;48.768;9.184;2022-10-19T09:09:38;23.92;;;14.88;;
27740;SDS011;15134;48.768;9.184;2022-10-19T09:12:09;20.20;;;12.57;;
27740;SDS011;15134;48.768;9.184;2022-10-19T09:14:49;15.10;;;10.45;;
27740;SDS011;15134;48.768;9.184;2022-10-19T09:17:28;14.65;;;8.70;;
27740;SDS011;15134;48.768;9.184;2022-10-19T09:19:55;11.63;;;8.07;;
27740;SDS011;15134;48.768;9.184;2022-10-19T09:24:52;13.77;;;8.43;;
27740;SDS011;15134;48.768;9.184;2022-10-19T09:27:37;15.45;;;8.13;;
27740;SDS011;15134;48.768;9.184;2022-10-19T09:30:05;14.40;;;8.55;;
27740;SDS011;15134;48.768;9.184;2022-10-19T09:32:39;12.02;;;8.43;;
27740;SDS011;15134;48.768;9.184;2022-10-19T09:35:13;13.05;;;8.05;;
27740;SDS011;15134;48.768;9.184;2022-10-19T09:37:56;11.43;;;7.97;;
27740;SDS011;15134;48.768;9.184;2022-10-19T09:40:24;10.25;;;8.38;;
27740;SDS011;15134;48.768;9.184;2022-10-19T09:42:52;16.38;;;7.78;;
27740;SDS011;15134;48.768;9.184;2022-10-19T09:45:37;11.15;;;7.93;;
27740;SDS011;15134;48.768;9.184;2022-10-19T09:48:31;10.68;;;7.78;;
27740;SDS011;15134;48.768;9.184;2022-10-19T09:51:12;11.70;;;7.97;;
27740;SDS011;15134;48.768;9.184;2022-10-19T09:53:45;10.38;;;8.02;;
27740;SDS011;15134;48.768;9.184;2022-10-19T09:56:17;14.27;;;8.43;;
27740;SDS011;15134;48.768;9.184;2022-10-19T09:58:49;11.23;;;7.53;;
27740;SDS011;15134;48.768;9.184;2022-10-19T10:04:08;8.70;;;6.60;;
27740;SDS011;15134;48.768;9.184;2022-10-19T10:06:38;9.68;;;6.82;;
27740;SDS011;15134;48.768;9.184;2022-10-19T10:11:35;8.40;;;5.80;;
27740;SDS011;15134;48.768;9.184;2022-10-19T10:14:04;8.68;;;6.05;;
27740;SDS011;15134;48.768;9.184;2022-10-19T10:17:00;8.20;;;5.85;;
27740;SDS011;15134;48.768;9.184;2022-10-19T10:19:29;11.50;;;6.13;;
27740;SDS011;15134;48.768;9.184;2022-10-19T10:21:57;8.25;;;5.95;;
27740;SDS011;15134;48.768;9.184;2022-10-19T10:24:27;9.07;;;5.75;;
27740;SDS011;15134;48.768;9.184;2022-10-19T10:26:59;8.10;;;5.07;;
27740;SDS011;15134;48.768;9.184;2022-10-19T10:29:27;7.75;;;5.07;;
27740;SDS011;15134;48.768;9.184;2022-10-19T10:32:02;7.25;;;5.18;;
27740;SDS011;15134;48.768;9.184;2022-10-19T10:34:43;9.15;;;5.22;;
27740;SDS011;15134;48.768;9.184;2022-10-19T10:37:15;9.80;;;5.28;;
27740;SDS011;15134;48.768;9.184;2022-10-19T10:40:03;7.18;;;5.00;;
27740;SDS011;15134;48.768;9.184;2022-10-19T10:42:40;10.77;;;5.50;;
27740;SDS011;15134;48.768;9.184;2022-10-19T10:45:53;7.57;;;5.03;;
27740;SDS011;15134;48.768;9.184;2022-10-19T10:47:56;8.18;;;5.82;;
27740;SDS011;15134;48.768;9.184;2022-10-19T10:50:25;8.90;;;5.43;;
27740;SDS011;15134;48.768;9.184;2022-10-19T10:53:05;6.90;;;4.97;;
27740;SDS011;15134;48.768;9.184;2022-10-19T10:55:55;10.07;;;4.70;;
27740;SDS011;15134;48.768;9.184;2022-10-19T10:58:30;7.25;;;4.00;;
27740;SDS011;15134;48.768;9.184;2022-10-19T11:00:58;6.53;;;4.07;;
27740;SDS011;15134;48.768;9.184;2022-10-19T11:03:28;5.75;;;4.18;;
27740;SDS011;15134;48.768;9.184;2022-10-19T11:05:57;6.82;;;4.70;;
27740;SDS011;15134;48.768;9.184;2022-10-19T11:08:45;6.78;;;4.30;;
27740;SDS011;15134;48.768;9.184;2022-10-19T11:11:42;9.07;;;4.32;;
27740;SDS011;15134;48.768;9.184;2022-10-19T11:16:55;5.15;;;3.17;;
27740;SDS011;15134;48.768;9.184;2022-10-19T11:19:33;8.43;;;3.95;;
27740;SDS011;15134;48.768;9.184;2022-10-19T11:27:55;8.93;;;3.78;;
27740;SDS011;15134;48.768;9.184;2022-10-19T11:30:40;9.07;;;4.60;;
27740;SDS011;15134;48.768;9.184;2022-10-19T11:33:27;7.20;;;3.40;;
27740;SDS011;15134;48.768;9.184;2022-10-19T11:36:21;5.15;;;3.70;;
27740;SDS011;15134;48.768;9.184;2022-10-19T11:39:37;7.38;;;4.40;;
27740;SDS011;15134;48.768;9.184;2022-10-19T11:42:07;9.07;;;4.63;;
27740;SDS011;15134;48.768;9.184;2022-10-19T11:50:02;7.50;;;4.32;;
27740;SDS011;15134;48.768;9.184;2022-10-19T12:01:11;8.80;;;4.28;;
27740;SDS011;15134;48.768;9.184;2022-10-19T12:06:11;8.90;;;4.70;;
27740;SDS011;15134;48.768;9.184;2022-10-19T12:14:10;8.07;;;4.70;;
27740;SDS011;15134;48.768;9.184;2022-10-19T12:16:41;8.30;;;4.80;;
27740;SDS011;15134;48.768;9.184;2022-10-19T12:19:23;17.77;;;11.13;;
27740;SDS011;15134;48.768;9.184;2022-10-19T12:21:52;13.88;;;8.60;;
27740;SDS011;15134;48.768;9.184;2022-10-19T12:24:22;14.23;;;9.13;;
27740;SDS011;15134;48.768;9.184;2022-10-19T12:26:50;15.35;;;8.45;;
27740;SDS011;15134;48.768;9.184;2022-10-19T12:29:22;12.90;;;6.00;;
27740;SDS011;15134;48.768;9.184;2022-10-19T12:31:54;8.70;;;6.20;;
27740;SDS011;15134;48.768;9.184;2022-10-19T12:37:06;9.60;;;5.70;;
27740;SDS011;15134;48.768;9.184;2022-10-19T12:43:13;6.10;;;4.43;;
27740;SDS011;15134;48.768;9.184;2022-10-19T12:45:42;8.85;;;5.60;;
27740;SDS011;15134;48.768;9.184;2022-10-19T12:48:25;7.60;;;5.60;;
27740;SDS011;15134;48.768;9.184;2022-10-19T12:53:37;8.73;;;5.28;;
27740;SDS011;15134;48.768;9.184;2022-10-19T13:03:50;7.97;;;5.47;;
27740;SDS011;15134;48.768;9.184;2022-10-19T13:06:30;9.18;;;5.50;;
27740;SDS011;15134;48.768;9.184;2022-10-19T13:08:59;10.05;;;6.13;;
27740;SDS011;15134;48.768;9.184;2022-10-19T13:11:31;6.93;;;4.93;;
27740;SDS011;15134;48.768;9.184;2022-10-19T13:21:42;8.70;;;5.53;;
27740;SDS011;15134;48.768;9.184;2022-10-19T13:24:18;10.13;;;5.60;;
27740;SDS011;15134;48.768;9.184;2022-10-19T13:26:44;10.55;;;5.20;;
27740;SDS011;15134;48.768;9.184;2022-10-19T13:29:25;9.97;;;5.10;;
27740;SDS011;15134;48.768;9.184;2022-10-19T14:00:18;6.15;;;4.32;;
27740;SDS011;15134;48.768;9.184;2022-10-19T14:05:24;7.33;;;3.70;;
27740;SDS011;15134;48.768;9.184;2022-10-19T14:08:22;6.57;;;4.22;;
27740;SDS011;15134;48.768;9.184;2022-10-19T14:11:03;6.75;;;4.30;;
27740;SDS011;15134;48.768;9.184;2022-10-19T14:13:30;6.90;;;3.85;;
27740;SDS011;15134;48.768;9.184;2022-10-19T14:15:57;6.68;;;3.55;;
27740;SDS011;15134;48.768;9.184;2022-10-19T14:18:30;6.43;;;3.95;;
27740;SDS011;15134;48.768;9.184;2022-10-19T14:25:50;8.53;;;4.23;;
27740;SDS011;15134;48.768;9.184;2022-10-19T14:28:44;7.68;;;4.10;;
27740;SDS011;15134;48.768;9.184;2022-10-19T14:31:16;8.55;;;4.00;;
27740;SDS011;15134;48.768;9.184;2022-10-19T14:33:47;8.57;;;5.07;;
27740;SDS011;15134;48.768;9.184;2022-10-19T14:36:19;7.80;;;4.28;;
27740;SDS011;15134;48.768;9.184;2022-10-19T14:38:47;7.90;;;3.78;;
27740;SDS011;15134;48.768;9.184;2022-10-19T14:41:25;9.70;;;4.85;;
27740;SDS011;15134;48.768;9.184;2022-10-19T14:43:57;7.25;;;3.75;;
27740;SDS011;15134;48.768;9.184;2022-10-19T14:46:28;7.38;;;3.67;;
27740;SDS011;15134;48.768;9.184;2022-10-19T14:48:59;7.47;;;4.72;;
27740;SDS011;15134;48.768;9.184;2022-10-19T14:54:07;9.90;;;4.97;;
27740;SDS011;15134;48.768;9.184;2022-10-19T14:56:55;8.73;;;5.03;;
27740;SDS011;15134;48.768;9.184;2022-10-19T15:01:54;5.85;;;3.35;;
27740;SDS011;15134;48.768;9.184;2022-10-19T15:04:23;6.72;;;4.55;;
27740;SDS011;15134;48.768;9.184;2022-10-19T15:06:51;7.47;;;4.20;;
27740;SDS011;15134;48.768;9.184;2022-10-19T15:09:23;8.93;;;5.10;;
27740;SDS011;15134;48.768;9.184;2022-10-19T15:11:53;9.65;;;6.20;;
27740;SDS011;15134;48.768;9.184;2022-10-19T15:14:42;20.55;;;13.15;;
27740;SDS011;15134;48.768;9.184;2022-10-19T15:17:45;13.65;;;6.97;;
27740;SDS011;15134;48.768;9.184;2022-10-19T15:20:02;7.10;;;4.38;;
27740;SDS011;15134;48.768;9.184;2022-10-19T15:27:32;7.22;;;4.97;;
27740;SDS011;15134;48.768;9.184;2022-10-19T15:35:28;17.45;;;10.70;;
27740;SDS011;15134;48.768;9.184;2022-10-19T15:38:00;14.35;;;9.13;;
27740;SDS011;15134;48.768;9.184;2022-10-19T15:40:49;9.40;;;6.20;;
27740;SDS011;15134;48.768;9.184;2022-10-19T15:46:18;9.18;;;6.15;;
27740;SDS011;15134;48.768;9.184;2022-10-19T15:48:48;8.00;;;4.88;;
27740;SDS011;15134;48.768;9.184;2022-10-19T15:53:53;7.20;;;4.45;;
27740;SDS011;15134;48.768;9.184;2022-10-19T15:56:21;8.65;;;4.90;;
27740;SDS011;15134;48.768;9.184;2022-10-19T15:58:48;9.32;;;4.90;;
27740;SDS011;15134;48.768;9.184;2022-10-19T16:06:06;7.53;;;4.22;;
27740;SDS011;15134;48.768;9.184;2022-10-19T16:08:32;7.80;;;5.03;;
27740;SDS011;15134;48.768;9.184;2022-10-19T16:10:58;8.95;;;5.28;;
27740;SDS011;15134;48.768;9.184;2022-10-19T16:13:24;9.07;;;4.77;;
27740;SDS011;15134;48.768;9.184;2022-10-19T16:15:50;7.07;;;4.67;;
27740;SDS011;15134;48.768;9.184;2022-10-19T16:18:17;8.98;;;5.00;;
27740;SDS011;15134;48.768;9.184;2022-10-19T16:20:43;8.47;;;5.07;;
27740;SDS011;15134;48.768;9.184;2022-10-19T16:23:09;6.70;;;4.27;;
27740;SDS011;15134;48.768;9.184;2022-10-19T16:25:36;7.90;;;4.30;;
27740;SDS011;15134;48.768;9.184;2022-10-19T16:28:02;7.50;;;5.20;;
27740;SDS011;15134;48.768;9.184;2022-10-19T16:30:28;6.70;;;4.77;;
27740;SDS011;15134;48.768;9.184;2022-10-19T16:32:53;7.17;;;5.27;;
27740;SDS011;15134;48.768;9.184;2022-10-19T16:35:19;9.50;;;6.00;;
27740;SDS011;15134;48.768;9.184;2022-10-19T16:37:45;16.23;;;8.27;;
27740;SDS011;15134;48.768;9.184;2022-10-19T16:40:10;18.77;;;11.13;;
27740;SDS011;15134;48.768;9.184;2022-10-19T16:42:36;10.00;;;6.97;;
27740;SDS011;15134;48.768;9.184;2022-10-19T16:45:02;15.33;;;10.37;;
27740;SDS011;15134;48.768;9.184;2022-10-19T16:47:28;16.57;;;10.00;;
27740;SDS011;15134;48.768;9.184;2022-10-19T16:49:58;10.93;;;7.57;;
27740;SDS011;15134;48.768;9.184;2022-10-19T16:52:28;14.38;;;7.15;;
27740;SDS011;15134;48.768;9.184;2022-10-19T16:54:55;7.78;;;5.88;;
27740;SDS011;15134;48.768;9.184;2022-10-19T16:57:21;9.93;;;7.00;;
27740;SDS011;15134;48.768;9.184;2022-10-19T16:59:50;10.80;;;6.77;;
27740;SDS011;15134;48.768;9.184;2022-10-19T17:02:20;23.67;;;15.32;;
27740;SDS011;15134;48.768;9.184;2022-10-19T17:04:46;15.73;;;12.55;;
27740;SDS011;15134;48.768;9.184;2022-10-19T17:07:12;10.23;;;7.03;;
27740;SDS011;15134;48.768;9.184;2022-10-19T17:09:38;10.60;;;7.47;;
27740;SDS011;15134;48.768;9.184;2022-10-19T17:12:05;13.00;;;8.03;;
27740;SDS011;15134;48.768;9.184;2022-10-19T17:14:31;8.65;;;6.38;;
27740;SDS011;15134;48.768;9.184;2022-10-19T17:16:57;10.77;;;7.33;;
27740;SDS011;15134;48.768;9.184;2022-10-19T17:19:23;36.67;;;23.03;;
27740;SDS011;15134;48.768;9.184;2022-10-19T17:21:49;57.83;;;36.50;;
27740;SDS011;15134;48.768;9.184;2022-10-19T17:24:16;35.53;;;24.77;;
27740;SDS011;15134;48.768;9.184;2022-10-19T17:26:42;15.70;;;10.25;;
27740;SDS011;15134;48.768;9.184;2022-10-19T17:29:11;18.25;;;11.35;;
27740;SDS011;15134;48.768;9.184;2022-10-19T17:31:37;15.35;;;9.88;;